AirNav   ProFlight Series 2 Aviation Headset
 
 289 users online  

5MI0 Detroit Medical Center Heliport
Detroit, Michigan, USA

GOING TO DETROIT?


FAA INFORMATION EFFECTIVE 18 JUNE 2020

Location

FAA Identifier: 5MI0
Lat/Long: 42-21-22.9700N 083-03-26.4500W
42-21.382833N 083-03.440833W
42.3563806,-83.0573472
(estimated)
Elevation: 630 ft. / 192 m (estimated)
Variation: 06W (1985)
From city: 4 miles N of DETROIT, MI
Time zone: UTC -4 (UTC -5 during Standard Time)
Zip code: 48201

Heliport Operations

Heliport use: Private use, MEDICAL USE.
Activation date: 07/1980
Control tower: no
ARTCC: CLEVELAND CENTER
FSS: LANSING FLIGHT SERVICE STATION
Attendance: UNATNDD
Wind indicator: lighted
Segmented circle: no
Lights: FOR PERIMETER LGTS PHONE 313-745-7031.
Beacon: white (unlighted land airport)
FOR ROTG BCN PHONE 313-745-7031.

Heliport Communications

WX ASOS at DET (4 nm NE): PHONE 313-371-9696
WX AWOS-3 at VLL (12 nm NW): 119.475 (248-288-4649)
WX ASOS at DTW (16 nm SW): 133.675 (734-955-5015)
WX AWOS-3 at ONZ (16 nm S): 119.675 (734-692-9686)

Nearby radio navigation aids

VOR radial/distance  VOR name  Freq  Var
DXOr064/16.2DETROIT VOR/DME113.4006W
SVMr101/24.0SALEM VORTAC114.3003W
CRLr047/25.7CARLETON VOR/DME115.7003W

 
NDB name  Hdg/Dist  Freq  Var  ID
GROSSE ILE023/15.941907WRYS .-. -.-- ...

Heliport Services

Runway Information

Helipad H1

Dimensions: 80 x 80 ft. / 24 x 24 m
Surface: concrete
Runway edge lights: PERI
Latitude: 42-21.382833N
Longitude: 083-03.440833W
Elevation: 630.0 ft.
Traffic pattern: leftleft

Heliport Ownership and Management from official FAA records

Ownership: Privately-owned
Owner: DETROIT MEDICAL CENTER CORP
4707 ST. ANTOINE
DETROIT, MI 48201
Phone (313) 745-2422
Manager: 4707 ST ANTOINE BLVD
DETROIT, MI 48201

Additional Remarks

3 FT PERIMETER FENCE.
APCH/DEP 180-210 DEGREES.
FOR CD CTC DETROIT APCH AT 800-499-8181.

Instrument Procedures

There are no published instrument procedures at 5MI0.

Some nearby airports with instrument procedures:

KDET - Coleman A Young Municipal Airport (4 nm NE)
KVLL - Oakland/Troy Airport (12 nm NW)
KDTW - Detroit Metropolitan Wayne County Airport (16 nm SW)
KONZ - Grosse Ile Municipal Airport (16 nm S)
1D2 - Canton-Plymouth-Mettetal Airport (18 nm W)
KMTC - Selfridge Air National Guard Base (18 nm NE)
 
Loc | Ops | Rwys | IFR | FBO | Links
Com | Nav | Svcs | Stats | Notes
Area around 5MI0 (Detroit Medical Center Heliport)
 
Road maps at: MapQuest Bing Google
 
Aerial photo
No photo
 
Sectional chart

 
Airport distance calculator
Flying to Detroit Medical Center Heliport? Find the distance to fly.

From to 5MI0

Sunrise and sunset
Times for 15-Jul-2020
 Local
(UTC-4)
 Zulu
(UTC)
Morning civil twilight05:3709:37
Sunrise06:1110:11
Sunset21:0601:06
Evening civil twilight21:3901:39

Current date and time
Zulu (UTC)  15-Jul-2020 07:33:15
Local (UTC-4)  15-Jul-2020 03:33:15
 
METAR
KDET 
3nm NE 
150653Z 00000KT 10SM CLR 22/17 A3010 RMK AO2 SLP190 T02170167
CYQG 
7nm SE 
150700Z AUTO 00000KT 9SM CLR 19/17 A3010 RMK SLP192 DENSITY ALT 1000FT
KVLL 
12nm NW 
150715Z AUTO 00000KT 10SM CLR 21/17 A3012 RMK AO2 T02120173
KDTW 
14nm SW 
150653Z 00000KT 10SM SCT095 BKN220 23/18 A3010 RMK AO2 SLP187 T02280178
KONZ 
16nm S 
150715Z AUTO 16006KT 10SM CLR 24/19 A3009 RMK AO2 T02360187
KMTC 
19nm NE 
150656Z AUTO 18004KT 10SM BKN160 BKN180 21/20 A3009 RMK AO2 SLP191 T02090204
TAF
KDET 
3nm NE 
150520Z 1506/1606 15003KT P6SM BKN200 FM151400 19007KT P6SM SCT250 FM152100 14007KT P6SM OVC200
CYQG 
7nm SE 
150538Z 1506/1606 15005KT P6SM SCT250 BECMG 1516/1518 18012KT FM160200 16006KT P6SM BKN250 RMK FCST BASED ON AUTO OBS. NXT FCST BY 151200Z
KDTW 
14nm SW 
150520Z 1506/1612 14003KT P6SM BKN200 FM151400 19007KT P6SM SCT250 FM152100 14007KT P6SM OVC200
KMTC 
19nm NE 
150100Z 1501/1607 17006KT 9999 FEW150 SCT250 QNH3001INS BECMG 1605/1606 13006KT 9999 FEW050 SCT200 QNH3000INS TX30/1520Z TN20/1509Z LAST NO AMDS AFT 1503 NEXT 1509
NOTAMs
Click for the latest NOTAMs
NOTAMs are issued by the DoD/FAA and will open in a separate window not controlled by AirNav.

 

 
 

Would you like to see your business listed on this page?

 If your business provides an interesting product or service to pilots, flight crews, aircraft, or users of the Detroit Medical Center Heliport, you should consider listing it here.  To start the listing process, click on the button below
 
Add a business
 

Other Pages about Detroit Medical Center Heliport

Update a link
 
Copyright © AirNav, LLC. All rights reserved. Privacy Policy  Contact